sensor_id;sensor_type;location;lat;lon;timestamp;pressure;altitude;pressure_sealevel;temperature;humidity
53960;BME280;39866;48.638;-2.020;2022-10-31T00:01:53;101583.88;;;18.41;65.12
53960;BME280;39866;48.638;-2.020;2022-10-31T00:04:18;101582.13;;;18.40;65.89
53960;BME280;39866;48.638;-2.020;2022-10-31T00:06:44;101563.06;;;18.25;65.58
53960;BME280;39866;48.638;-2.020;2022-10-31T00:09:10;101572.59;;;18.32;65.80
53960;BME280;39866;48.638;-2.020;2022-10-31T00:11:35;101573.53;;;18.31;65.64
53960;BME280;39866;48.638;-2.020;2022-10-31T00:14:01;101573.53;;;18.31;65.73
53960;BME280;39866;48.638;-2.020;2022-10-31T00:16:28;101572.69;;;18.31;65.96
53960;BME280;39866;48.638;-2.020;2022-10-31T00:18:56;101572.91;;;18.26;65.71
53960;BME280;39866;48.638;-2.020;2022-10-31T00:21:22;101579.16;;;18.27;65.77
53960;BME280;39866;48.638;-2.020;2022-10-31T00:23:48;101573.84;;;18.25;65.92
53960;BME280;39866;48.638;-2.020;2022-10-31T00:26:13;101565.25;;;18.17;66.01
53960;BME280;39866;48.638;-2.020;2022-10-31T00:28:39;101565.75;;;18.25;65.83
53960;BME280;39866;48.638;-2.020;2022-10-31T00:31:07;101566.56;;;18.27;65.75
53960;BME280;39866;48.638;-2.020;2022-10-31T00:33:34;101567.38;;;18.29;65.86
53960;BME280;39866;48.638;-2.020;2022-10-31T00:36:00;101557.50;;;18.28;65.62
53960;BME280;39866;48.638;-2.020;2022-10-31T00:38:25;101550.47;;;18.26;65.64
53960;BME280;39866;48.638;-2.020;2022-10-31T00:40:51;101559.00;;;18.17;65.57
53960;BME280;39866;48.638;-2.020;2022-10-31T00:43:16;101551.41;;;18.25;66.21
53960;BME280;39866;48.638;-2.020;2022-10-31T00:45:42;101548.00;;;18.21;66.01
53960;BME280;39866;48.638;-2.020;2022-10-31T00:48:08;101537.13;;;18.23;65.83
53960;BME280;39866;48.638;-2.020;2022-10-31T00:50:34;101543.47;;;18.22;65.88
53960;BME280;39866;48.638;-2.020;2022-10-31T00:52:59;101539.31;;;18.15;65.76
53960;BME280;39866;48.638;-2.020;2022-10-31T00:55:25;101537.22;;;18.21;65.63
53960;BME280;39866;48.638;-2.020;2022-10-31T00:57:50;101529.13;;;18.21;65.78
53960;BME280;39866;48.638;-2.020;2022-10-31T01:00:16;101529.03;;;18.23;65.80
53960;BME280;39866;48.638;-2.020;2022-10-31T01:02:41;101518.47;;;18.18;66.06
53960;BME280;39866;48.638;-2.020;2022-10-31T01:05:07;101512.38;;;18.15;65.73
53960;BME280;39866;48.638;-2.020;2022-10-31T01:07:35;101519.06;;;18.06;65.93
53960;BME280;39866;48.638;-2.020;2022-10-31T01:10:00;101521.25;;;17.98;66.40
53960;BME280;39866;48.638;-2.020;2022-10-31T01:12:26;101509.91;;;18.10;66.27
53960;BME280;39866;48.638;-2.020;2022-10-31T01:14:51;101518.19;;;18.05;66.11
53960;BME280;39866;48.638;-2.020;2022-10-31T01:17:16;101511.00;;;18.06;66.13
53960;BME280;39866;48.638;-2.020;2022-10-31T01:19:42;101517.34;;;18.05;66.14
53960;BME280;39866;48.638;-2.020;2022-10-31T01:22:07;101516.47;;;18.04;66.04
53960;BME280;39866;48.638;-2.020;2022-10-31T01:24:32;101511.72;;;18.10;66.11
53960;BME280;39866;48.638;-2.020;2022-10-31T01:26:58;101510.91;;;18.07;66.23
53960;BME280;39866;48.638;-2.020;2022-10-31T01:29:23;101511.63;;;18.11;66.32
53960;BME280;39866;48.638;-2.020;2022-10-31T01:31:48;101508.88;;;18.13;66.42
53960;BME280;39866;48.638;-2.020;2022-10-31T01:34:15;101501.00;;;18.08;66.10
53960;BME280;39866;48.638;-2.020;2022-10-31T01:36:42;101478.94;;;18.00;65.94
53960;BME280;39866;48.638;-2.020;2022-10-31T01:39:13;101487.75;;;18.03;66.04
53960;BME280;39866;48.638;-2.020;2022-10-31T01:41:44;101497.38;;;18.09;65.96
53960;BME280;39866;48.638;-2.020;2022-10-31T01:46:48;101492.84;;;18.10;66.18
53960;BME280;39866;48.638;-2.020;2022-10-31T01:51:53;101497.94;;;18.16;66.15
53960;BME280;39866;48.638;-2.020;2022-10-31T01:54:24;101490.31;;;18.06;65.94
53960;BME280;39866;48.638;-2.020;2022-10-31T01:56:52;101493.72;;;18.10;66.18
53960;BME280;39866;48.638;-2.020;2022-10-31T01:59:21;101491.81;;;18.12;66.06
53960;BME280;39866;48.638;-2.020;2022-10-31T02:01:50;101494.59;;;18.11;66.11
53960;BME280;39866;48.638;-2.020;2022-10-31T02:04:16;101490.06;;;18.11;66.10
53960;BME280;39866;48.638;-2.020;2022-10-31T02:06:49;101491.13;;;18.09;65.80
53960;BME280;39866;48.638;-2.020;2022-10-31T02:09:19;101486.75;;;18.06;66.16
53960;BME280;39866;48.638;-2.020;2022-10-31T02:11:51;101466.78;;;18.10;65.99
53960;BME280;39866;48.638;-2.020;2022-10-31T02:14:17;101472.66;;;18.18;66.06
53960;BME280;39866;48.638;-2.020;2022-10-31T02:16:42;101481.72;;;18.17;65.92
53960;BME280;39866;48.638;-2.020;2022-10-31T02:19:08;101478.06;;;18.18;65.76
53960;BME280;39866;48.638;-2.020;2022-10-31T02:21:50;101480.63;;;18.21;65.78
53960;BME280;39866;48.638;-2.020;2022-10-31T02:24:42;101486.00;;;18.21;65.68
53960;BME280;39866;48.638;-2.020;2022-10-31T02:27:42;101479.28;;;18.11;66.00
53960;BME280;39866;48.638;-2.020;2022-10-31T02:30:21;101485.41;;;18.15;65.65
53960;BME280;39866;48.638;-2.020;2022-10-31T02:33:00;101486.88;;;18.22;65.59
53960;BME280;39866;48.638;-2.020;2022-10-31T02:35:34;101488.75;;;18.20;65.62
53960;BME280;39866;48.638;-2.020;2022-10-31T02:38:22;101481.53;;;18.20;65.71
53960;BME280;39866;48.638;-2.020;2022-10-31T02:46:37;101481.41;;;18.23;65.62
53960;BME280;39866;48.638;-2.020;2022-10-31T02:49:12;101470.69;;;18.22;65.74
53960;BME280;39866;48.638;-2.020;2022-10-31T02:51:41;101481.03;;;18.12;65.89
53960;BME280;39866;48.638;-2.020;2022-10-31T02:54:18;101474.53;;;18.16;65.96
53960;BME280;39866;48.638;-2.020;2022-10-31T02:56:44;101467.91;;;18.23;65.94
53960;BME280;39866;48.638;-2.020;2022-10-31T02:59:10;101461.56;;;18.24;65.69
53960;BME280;39866;48.638;-2.020;2022-10-31T03:01:47;101465.22;;;18.23;65.76
53960;BME280;39866;48.638;-2.020;2022-10-31T03:09:41;101441.72;;;18.08;66.01
53960;BME280;39866;48.638;-2.020;2022-10-31T03:12:12;101447.28;;;18.05;66.18
53960;BME280;39866;48.638;-2.020;2022-10-31T03:14:41;101437.81;;;17.96;66.59
53960;BME280;39866;48.638;-2.020;2022-10-31T03:17:12;101439.41;;;18.00;66.46
53960;BME280;39866;48.638;-2.020;2022-10-31T03:19:45;101430.75;;;17.94;66.58
53960;BME280;39866;48.638;-2.020;2022-10-31T03:22:17;101440.56;;;17.95;66.67
53960;BME280;39866;48.638;-2.020;2022-10-31T03:24:43;101422.44;;;17.98;66.70
53960;BME280;39866;48.638;-2.020;2022-10-31T03:27:12;101419.75;;;17.79;67.14
53960;BME280;39866;48.638;-2.020;2022-10-31T03:29:40;101419.56;;;17.84;67.13
53960;BME280;39866;48.638;-2.020;2022-10-31T03:32:10;101414.50;;;17.95;66.99
53960;BME280;39866;48.638;-2.020;2022-10-31T03:34:39;101418.22;;;17.93;66.98
53960;BME280;39866;48.638;-2.020;2022-10-31T03:37:08;101403.56;;;17.98;67.20
53960;BME280;39866;48.638;-2.020;2022-10-31T03:39:36;101406.41;;;17.95;67.11
53960;BME280;39866;48.638;-2.020;2022-10-31T03:42:07;101389.69;;;17.89;67.31
53960;BME280;39866;48.638;-2.020;2022-10-31T03:44:35;101399.06;;;17.99;67.38
53960;BME280;39866;48.638;-2.020;2022-10-31T03:47:02;101401.38;;;18.06;67.31
53960;BME280;39866;48.638;-2.020;2022-10-31T03:49:29;101395.75;;;18.11;67.27
53960;BME280;39866;48.638;-2.020;2022-10-31T03:52:00;101383.09;;;18.13;67.41
53960;BME280;39866;48.638;-2.020;2022-10-31T03:54:42;101382.91;;;17.99;67.57
53960;BME280;39866;48.638;-2.020;2022-10-31T03:59:55;101385.06;;;18.10;67.59
53960;BME280;39866;48.638;-2.020;2022-10-31T04:02:26;101381.66;;;18.06;67.74
53960;BME280;39866;48.638;-2.020;2022-10-31T04:04:53;101389.59;;;18.09;67.66
53960;BME280;39866;48.638;-2.020;2022-10-31T04:07:19;101382.53;;;18.06;67.70
53960;BME280;39866;48.638;-2.020;2022-10-31T04:09:47;101384.34;;;18.06;67.82
53960;BME280;39866;48.638;-2.020;2022-10-31T04:12:14;101389.34;;;18.14;67.73
53960;BME280;39866;48.638;-2.020;2022-10-31T04:14:42;101381.28;;;18.14;67.51
53960;BME280;39866;48.638;-2.020;2022-10-31T04:17:12;101375.31;;;18.07;67.51
53960;BME280;39866;48.638;-2.020;2022-10-31T04:19:39;101384.09;;;17.93;67.92
53960;BME280;39866;48.638;-2.020;2022-10-31T04:22:04;101372.34;;;17.94;67.96
53960;BME280;39866;48.638;-2.020;2022-10-31T04:24:30;101366.47;;;17.86;67.99
53960;BME280;39866;48.638;-2.020;2022-10-31T04:26:55;101365.97;;;17.78;68.19
53960;BME280;39866;48.638;-2.020;2022-10-31T04:29:20;101367.06;;;17.93;67.95
53960;BME280;39866;48.638;-2.020;2022-10-31T04:31:46;101370.84;;;17.89;67.76
53960;BME280;39866;48.638;-2.020;2022-10-31T04:34:11;101374.88;;;17.80;67.96
53960;BME280;39866;48.638;-2.020;2022-10-31T04:36:36;101372.31;;;17.77;68.02
53960;BME280;39866;48.638;-2.020;2022-10-31T04:39:02;101365.56;;;17.67;68.31
53960;BME280;39866;48.638;-2.020;2022-10-31T04:41:27;101363.28;;;17.78;68.00
53960;BME280;39866;48.638;-2.020;2022-10-31T04:43:52;101363.75;;;17.67;68.17
53960;BME280;39866;48.638;-2.020;2022-10-31T04:46:18;101362.47;;;17.57;68.35
53960;BME280;39866;48.638;-2.020;2022-10-31T04:48:43;101361.66;;;17.55;68.54
53960;BME280;39866;48.638;-2.020;2022-10-31T04:51:08;101345.34;;;17.58;68.42
53960;BME280;39866;48.638;-2.020;2022-10-31T04:53:34;101357.44;;;17.68;68.52
53960;BME280;39866;48.638;-2.020;2022-10-31T04:55:59;101355.56;;;17.51;68.54
53960;BME280;39866;48.638;-2.020;2022-10-31T04:58:25;101353.44;;;17.58;68.51
53960;BME280;39866;48.638;-2.020;2022-10-31T05:00:52;101338.22;;;17.38;68.78
53960;BME280;39866;48.638;-2.020;2022-10-31T05:03:18;101340.13;;;17.55;68.78
53960;BME280;39866;48.638;-2.020;2022-10-31T05:05:43;101330.44;;;17.51;68.78
53960;BME280;39866;48.638;-2.020;2022-10-31T05:08:09;101330.38;;;17.52;68.41
53960;BME280;39866;48.638;-2.020;2022-10-31T05:10:34;101326.53;;;17.39;68.65
53960;BME280;39866;48.638;-2.020;2022-10-31T05:13:00;101328.41;;;17.37;68.92
53960;BME280;39866;48.638;-2.020;2022-10-31T05:15:27;101335.72;;;17.35;69.00
53960;BME280;39866;48.638;-2.020;2022-10-31T05:17:53;101315.59;;;17.42;69.22
53960;BME280;39866;48.638;-2.020;2022-10-31T05:20:21;101318.38;;;17.41;69.21
53960;BME280;39866;48.638;-2.020;2022-10-31T05:22:48;101319.25;;;17.41;69.03
53960;BME280;39866;48.638;-2.020;2022-10-31T05:25:14;101322.16;;;17.37;68.89
53960;BME280;39866;48.638;-2.020;2022-10-31T05:27:42;101307.81;;;17.55;68.92
53960;BME280;39866;48.638;-2.020;2022-10-31T05:30:09;101314.47;;;17.48;68.62
53960;BME280;39866;48.638;-2.020;2022-10-31T05:32:37;101306.59;;;17.43;68.73
53960;BME280;39866;48.638;-2.020;2022-10-31T05:35:03;101300.28;;;17.44;68.93
53960;BME280;39866;48.638;-2.020;2022-10-31T05:37:29;101301.13;;;17.26;69.49
53960;BME280;39866;48.638;-2.020;2022-10-31T05:39:54;101291.56;;;17.20;69.41
53960;BME280;39866;48.638;-2.020;2022-10-31T05:42:20;101294.03;;;17.44;69.25
53960;BME280;39866;48.638;-2.020;2022-10-31T05:44:45;101288.47;;;17.47;68.92
53960;BME280;39866;48.638;-2.020;2022-10-31T05:47:10;101291.28;;;17.63;68.89
53960;BME280;39866;48.638;-2.020;2022-10-31T05:49:36;101283.91;;;17.66;68.46
53960;BME280;39866;48.638;-2.020;2022-10-31T05:52:01;101274.47;;;17.57;69.00
53960;BME280;39866;48.638;-2.020;2022-10-31T05:54:26;101274.88;;;17.67;68.60
53960;BME280;39866;48.638;-2.020;2022-10-31T05:56:51;101274.84;;;17.69;68.34
53960;BME280;39866;48.638;-2.020;2022-10-31T05:59:17;101265.41;;;17.60;68.63
53960;BME280;39866;48.638;-2.020;2022-10-31T06:01:42;101259.63;;;17.68;68.49
53960;BME280;39866;48.638;-2.020;2022-10-31T06:04:07;101249.44;;;17.74;68.40
53960;BME280;39866;48.638;-2.020;2022-10-31T06:06:33;101237.72;;;17.75;68.55
53960;BME280;39866;48.638;-2.020;2022-10-31T06:08:58;101234.34;;;17.70;68.39
53960;BME280;39866;48.638;-2.020;2022-10-31T06:11:24;101225.50;;;17.68;68.07
53960;BME280;39866;48.638;-2.020;2022-10-31T06:13:49;101230.69;;;17.71;68.25
53960;BME280;39866;48.638;-2.020;2022-10-31T06:16:14;101225.06;;;17.77;68.44
53960;BME280;39866;48.638;-2.020;2022-10-31T06:18:39;101228.69;;;17.76;68.23
53960;BME280;39866;48.638;-2.020;2022-10-31T06:21:05;101225.56;;;17.67;68.36
53960;BME280;39866;48.638;-2.020;2022-10-31T06:23:30;101220.25;;;17.65;68.59
53960;BME280;39866;48.638;-2.020;2022-10-31T06:25:55;101215.78;;;17.47;68.97
53960;BME280;39866;48.638;-2.020;2022-10-31T06:28:21;101214.53;;;17.54;69.09
53960;BME280;39866;48.638;-2.020;2022-10-31T06:30:46;101216.34;;;17.53;68.80
53960;BME280;39866;48.638;-2.020;2022-10-31T06:33:11;101212.72;;;17.54;68.87
53960;BME280;39866;48.638;-2.020;2022-10-31T06:35:37;101210.75;;;17.58;68.86
53960;BME280;39866;48.638;-2.020;2022-10-31T06:38:02;101214.00;;;17.47;68.92
53960;BME280;39866;48.638;-2.020;2022-10-31T06:40:27;101202.50;;;17.44;68.83
53960;BME280;39866;48.638;-2.020;2022-10-31T06:42:57;101194.34;;;17.45;69.12
53960;BME280;39866;48.638;-2.020;2022-10-31T06:45:23;101198.75;;;17.46;69.17
53960;BME280;39866;48.638;-2.020;2022-10-31T06:47:52;101202.19;;;17.50;68.90
53960;BME280;39866;48.638;-2.020;2022-10-31T06:50:18;101194.91;;;17.52;69.28
53960;BME280;39866;48.638;-2.020;2022-10-31T06:52:49;101191.34;;;17.51;68.64
53960;BME280;39866;48.638;-2.020;2022-10-31T06:55:15;101186.97;;;17.49;68.89
53960;BME280;39866;48.638;-2.020;2022-10-31T06:57:40;101175.25;;;17.50;68.91
53960;BME280;39866;48.638;-2.020;2022-10-31T07:00:06;101173.44;;;17.50;68.58
53960;BME280;39866;48.638;-2.020;2022-10-31T07:02:32;101164.72;;;17.45;68.09
53960;BME280;39866;48.638;-2.020;2022-10-31T07:04:57;101163.94;;;17.43;68.52
53960;BME280;39866;48.638;-2.020;2022-10-31T07:07:22;101171.13;;;17.43;68.42
53960;BME280;39866;48.638;-2.020;2022-10-31T07:09:48;101171.53;;;17.35;68.75
53960;BME280;39866;48.638;-2.020;2022-10-31T07:12:13;101168.19;;;17.30;68.71
53960;BME280;39866;48.638;-2.020;2022-10-31T07:14:38;101160.69;;;17.37;68.66
53960;BME280;39866;48.638;-2.020;2022-10-31T07:17:04;101155.81;;;17.26;68.67
53960;BME280;39866;48.638;-2.020;2022-10-31T07:19:29;101158.47;;;17.27;68.78
53960;BME280;39866;48.638;-2.020;2022-10-31T07:21:54;101159.38;;;17.26;68.88
53960;BME280;39866;48.638;-2.020;2022-10-31T07:24:19;101155.09;;;17.22;68.79
53960;BME280;39866;48.638;-2.020;2022-10-31T07:26:45;101156.53;;;17.29;68.86
53960;BME280;39866;48.638;-2.020;2022-10-31T07:29:12;101158.91;;;17.18;68.97
53960;BME280;39866;48.638;-2.020;2022-10-31T07:31:37;101166.06;;;17.37;68.82
53960;BME280;39866;48.638;-2.020;2022-10-31T07:34:03;101160.59;;;17.38;68.31
53960;BME280;39866;48.638;-2.020;2022-10-31T07:36:28;101148.66;;;17.44;68.45
53960;BME280;39866;48.638;-2.020;2022-10-31T07:38:53;101144.44;;;17.38;68.83
53960;BME280;39866;48.638;-2.020;2022-10-31T07:41:20;101147.72;;;17.45;68.50
53960;BME280;39866;48.638;-2.020;2022-10-31T07:43:46;101146.28;;;17.55;68.16
53960;BME280;39866;48.638;-2.020;2022-10-31T07:46:11;101145.72;;;17.48;68.41
53960;BME280;39866;48.638;-2.020;2022-10-31T07:48:36;101147.56;;;17.65;68.19
53960;BME280;39866;48.638;-2.020;2022-10-31T07:51:02;101153.97;;;17.63;68.05
53960;BME280;39866;48.638;-2.020;2022-10-31T07:53:27;101148.50;;;17.64;67.91
53960;BME280;39866;48.638;-2.020;2022-10-31T07:55:53;101150.00;;;17.70;67.97
53960;BME280;39866;48.638;-2.020;2022-10-31T07:58:18;101143.28;;;17.61;67.83
53960;BME280;39866;48.638;-2.020;2022-10-31T08:00:46;101145.50;;;17.53;67.93
53960;BME280;39866;48.638;-2.020;2022-10-31T08:03:17;101141.38;;;17.63;67.81
53960;BME280;39866;48.638;-2.020;2022-10-31T08:05:43;101133.00;;;17.52;67.90
53960;BME280;39866;48.638;-2.020;2022-10-31T08:08:11;101135.22;;;17.44;68.58
53960;BME280;39866;48.638;-2.020;2022-10-31T08:10:36;101142.31;;;17.45;68.20
53960;BME280;39866;48.638;-2.020;2022-10-31T08:13:04;101134.72;;;17.53;68.24
53960;BME280;39866;48.638;-2.020;2022-10-31T08:15:30;101128.38;;;17.54;68.10
53960;BME280;39866;48.638;-2.020;2022-10-31T08:17:56;101118.25;;;17.59;67.86
53960;BME280;39866;48.638;-2.020;2022-10-31T08:20:22;101117.06;;;17.65;67.95
53960;BME280;39866;48.638;-2.020;2022-10-31T08:23:01;101105.88;;;17.55;67.88
53960;BME280;39866;48.638;-2.020;2022-10-31T08:25:28;101099.09;;;17.65;67.99
53960;BME280;39866;48.638;-2.020;2022-10-31T08:27:54;101101.88;;;17.64;68.08
53960;BME280;39866;48.638;-2.020;2022-10-31T08:30:21;101089.75;;;17.72;67.76
53960;BME280;39866;48.638;-2.020;2022-10-31T08:32:47;101087.84;;;17.74;67.71
53960;BME280;39866;48.638;-2.020;2022-10-31T08:35:21;101085.78;;;17.79;67.46
53960;BME280;39866;48.638;-2.020;2022-10-31T08:37:52;101079.53;;;17.79;67.48
53960;BME280;39866;48.638;-2.020;2022-10-31T08:40:17;101084.19;;;17.58;67.83
53960;BME280;39866;48.638;-2.020;2022-10-31T08:42:42;101077.47;;;17.67;67.48
53960;BME280;39866;48.638;-2.020;2022-10-31T08:45:08;101065.75;;;17.68;68.06
53960;BME280;39866;48.638;-2.020;2022-10-31T08:47:33;101053.00;;;17.54;67.91
53960;BME280;39866;48.638;-2.020;2022-10-31T08:49:58;101047.63;;;17.54;67.97
53960;BME280;39866;48.638;-2.020;2022-10-31T08:52:24;101041.59;;;17.66;67.79
53960;BME280;39866;48.638;-2.020;2022-10-31T08:54:50;101040.31;;;17.73;67.86
53960;BME280;39866;48.638;-2.020;2022-10-31T08:57:15;101037.94;;;17.85;67.76
53960;BME280;39866;48.638;-2.020;2022-10-31T08:59:41;101033.63;;;17.98;67.64
53960;BME280;39866;48.638;-2.020;2022-10-31T09:02:07;101023.13;;;17.93;67.24
53960;BME280;39866;48.638;-2.020;2022-10-31T09:04:32;101012.75;;;17.86;67.28
53960;BME280;39866;48.638;-2.020;2022-10-31T09:06:58;101025.34;;;17.85;67.54
53960;BME280;39866;48.638;-2.020;2022-10-31T09:09:23;101010.47;;;17.78;67.74
53960;BME280;39866;48.638;-2.020;2022-10-31T09:11:48;101001.13;;;17.85;67.76
53960;BME280;39866;48.638;-2.020;2022-10-31T09:14:13;100987.56;;;17.87;67.28
53960;BME280;39866;48.638;-2.020;2022-10-31T09:16:39;100974.09;;;17.87;67.39
53960;BME280;39866;48.638;-2.020;2022-10-31T09:19:04;100973.25;;;18.02;67.39
53960;BME280;39866;48.638;-2.020;2022-10-31T09:21:29;100970.25;;;17.91;67.17
53960;BME280;39866;48.638;-2.020;2022-10-31T09:23:55;100969.41;;;18.06;67.08
53960;BME280;39866;48.638;-2.020;2022-10-31T09:26:20;100949.84;;;17.87;67.64
53960;BME280;39866;48.638;-2.020;2022-10-31T09:28:46;100952.47;;;18.04;67.26
53960;BME280;39866;48.638;-2.020;2022-10-31T09:31:11;100943.72;;;18.00;67.23
53960;BME280;39866;48.638;-2.020;2022-10-31T09:33:37;100946.41;;;18.00;67.33
53960;BME280;39866;48.638;-2.020;2022-10-31T09:36:02;100937.09;;;18.06;66.86
53960;BME280;39866;48.638;-2.020;2022-10-31T09:38:28;100931.44;;;18.11;66.80
53960;BME280;39866;48.638;-2.020;2022-10-31T09:46:56;100910.31;;;18.19;66.93
53960;BME280;39866;48.638;-2.020;2022-10-31T09:49:38;100909.78;;;18.28;66.70
53960;BME280;39866;48.638;-2.020;2022-10-31T09:52:13;100891.19;;;18.23;66.52
53960;BME280;39866;48.638;-2.020;2022-10-31T09:54:52;100904.38;;;18.28;66.47
53960;BME280;39866;48.638;-2.020;2022-10-31T09:57:24;100906.81;;;18.32;66.57
53960;BME280;39866;48.638;-2.020;2022-10-31T09:59:50;100895.53;;;18.26;66.75
53960;BME280;39866;48.638;-2.020;2022-10-31T10:02:21;100890.03;;;18.27;66.77
53960;BME280;39866;48.638;-2.020;2022-10-31T10:10:00;100894.97;;;18.35;66.94
53960;BME280;39866;48.638;-2.020;2022-10-31T10:12:40;100892.38;;;18.34;66.80
53960;BME280;39866;48.638;-2.020;2022-10-31T10:29:41;100869.34;;;18.28;67.74
53960;BME280;39866;48.638;-2.020;2022-10-31T10:32:17;100864.19;;;18.39;67.61
53960;BME280;39866;48.638;-2.020;2022-10-31T10:34:49;100861.31;;;18.42;67.46
53960;BME280;39866;48.638;-2.020;2022-10-31T10:39:54;100852.56;;;18.39;67.66
53960;BME280;39866;48.638;-2.020;2022-10-31T10:42:23;100847.50;;;18.32;68.14
53960;BME280;39866;48.638;-2.020;2022-10-31T10:45:18;100843.00;;;18.33;68.51
53960;BME280;39866;48.638;-2.020;2022-10-31T10:48:22;100824.34;;;18.44;68.24
53960;BME280;39866;48.638;-2.020;2022-10-31T10:50:51;100820.91;;;18.42;68.24
53960;BME280;39866;48.638;-2.020;2022-10-31T10:56:18;100796.34;;;18.47;67.94
53960;BME280;39866;48.638;-2.020;2022-10-31T10:58:47;100777.69;;;18.58;68.17
53960;BME280;39866;48.638;-2.020;2022-10-31T11:01:14;100769.22;;;18.64;67.97
53960;BME280;39866;48.638;-2.020;2022-10-31T11:03:40;100772.25;;;18.74;68.07
53960;BME280;39866;48.638;-2.020;2022-10-31T11:06:18;100767.72;;;18.74;68.09
53960;BME280;39866;48.638;-2.020;2022-10-31T11:08:47;100757.13;;;18.86;67.83
53960;BME280;39866;48.638;-2.020;2022-10-31T11:13:44;100746.53;;;18.97;67.80
53960;BME280;39866;48.638;-2.020;2022-10-31T11:16:27;100739.59;;;18.93;67.70
53960;BME280;39866;48.638;-2.020;2022-10-31T11:18:53;100736.22;;;19.03;67.63
53960;BME280;39866;48.638;-2.020;2022-10-31T11:21:28;100720.88;;;19.04;67.25
53960;BME280;39866;48.638;-2.020;2022-10-31T11:26:35;100702.84;;;19.19;67.21
53960;BME280;39866;48.638;-2.020;2022-10-31T11:29:04;100709.13;;;19.05;67.75
53960;BME280;39866;48.638;-2.020;2022-10-31T11:31:31;100701.41;;;19.13;67.44
53960;BME280;39866;48.638;-2.020;2022-10-31T11:34:03;100694.81;;;19.32;67.27
53960;BME280;39866;48.638;-2.020;2022-10-31T11:36:32;100681.63;;;19.27;67.34
53960;BME280;39866;48.638;-2.020;2022-10-31T11:38:59;100669.25;;;19.37;67.12
53960;BME280;39866;48.638;-2.020;2022-10-31T11:41:35;100657.09;;;19.30;67.54
53960;BME280;39866;48.638;-2.020;2022-10-31T11:44:10;100658.88;;;19.31;67.40
53960;BME280;39866;48.638;-2.020;2022-10-31T11:46:42;100638.56;;;19.38;67.31
53960;BME280;39866;48.638;-2.020;2022-10-31T11:49:24;100633.16;;;19.38;67.46
53960;BME280;39866;48.638;-2.020;2022-10-31T11:51:54;100627.16;;;19.47;67.20
53960;BME280;39866;48.638;-2.020;2022-10-31T11:54:35;100620.47;;;19.53;67.15
53960;BME280;39866;48.638;-2.020;2022-10-31T11:57:03;100609.13;;;19.48;67.28
53960;BME280;39866;48.638;-2.020;2022-10-31T11:59:30;100610.31;;;19.44;67.66
53960;BME280;39866;48.638;-2.020;2022-10-31T12:01:59;100611.03;;;19.33;68.13
53960;BME280;39866;48.638;-2.020;2022-10-31T12:04:34;100591.38;;;19.31;68.35
53960;BME280;39866;48.638;-2.020;2022-10-31T12:07:01;100588.13;;;19.39;68.19
53960;BME280;39866;48.638;-2.020;2022-10-31T12:09:28;100584.22;;;19.30;68.07
53960;BME280;39866;48.638;-2.020;2022-10-31T12:15:11;100584.56;;;19.65;67.98
53960;BME280;39866;48.638;-2.020;2022-10-31T12:17:45;100579.16;;;19.65;67.78
53960;BME280;39866;48.638;-2.020;2022-10-31T12:26:06;100556.38;;;19.69;67.99
53960;BME280;39866;48.638;-2.020;2022-10-31T12:34:12;100541.25;;;19.79;67.34
53960;BME280;39866;48.638;-2.020;2022-10-31T12:55:44;100506.25;;;19.78;67.22
53960;BME280;39866;48.638;-2.020;2022-10-31T12:58:22;100500.84;;;19.78;67.26
53960;BME280;39866;48.638;-2.020;2022-10-31T13:03:36;100501.91;;;19.75;67.38
53960;BME280;39866;48.638;-2.020;2022-10-31T13:06:09;100492.09;;;19.74;67.37
53960;BME280;39866;48.638;-2.020;2022-10-31T13:08:43;100481.63;;;19.70;67.35
53960;BME280;39866;48.638;-2.020;2022-10-31T13:11:20;100476.53;;;19.65;67.44
53960;BME280;39866;48.638;-2.020;2022-10-31T13:14:02;100470.16;;;19.79;66.97
53960;BME280;39866;48.638;-2.020;2022-10-31T13:16:34;100469.50;;;19.75;67.31
53960;BME280;39866;48.638;-2.020;2022-10-31T13:19:08;100463.16;;;19.76;67.26
53960;BME280;39866;48.638;-2.020;2022-10-31T13:21:41;100461.31;;;19.77;67.42
53960;BME280;39866;48.638;-2.020;2022-10-31T13:24:13;100446.09;;;19.76;67.07
53960;BME280;39866;48.638;-2.020;2022-10-31T13:26:54;100438.19;;;19.73;67.12
53960;BME280;39866;48.638;-2.020;2022-10-31T13:29:36;100438.53;;;19.68;67.41
53960;BME280;39866;48.638;-2.020;2022-10-31T13:32:06;100438.53;;;19.68;67.43
53960;BME280;39866;48.638;-2.020;2022-10-31T13:34:36;100431.06;;;19.72;67.29
53960;BME280;39866;48.638;-2.020;2022-10-31T13:37:17;100444.66;;;19.70;67.33
53960;BME280;39866;48.638;-2.020;2022-10-31T13:42:52;100430.63;;;19.65;67.40
53960;BME280;39866;48.638;-2.020;2022-10-31T13:45:23;100425.56;;;19.73;67.51
53960;BME280;39866;48.638;-2.020;2022-10-31T13:48:00;100420.88;;;19.75;67.35
53960;BME280;39866;48.638;-2.020;2022-10-31T13:50:31;100410.53;;;19.69;67.45
53960;BME280;39866;48.638;-2.020;2022-10-31T13:55:40;100415.09;;;19.69;67.38
53960;BME280;39866;48.638;-2.020;2022-10-31T13:58:28;100397.88;;;19.57;67.92
53960;BME280;39866;48.638;-2.020;2022-10-31T14:01:04;100397.78;;;19.71;67.59
53960;BME280;39866;48.638;-2.020;2022-10-31T14:03:37;100394.53;;;19.79;67.28
53960;BME280;39866;48.638;-2.020;2022-10-31T14:06:03;100392.16;;;19.74;67.40
53960;BME280;39866;48.638;-2.020;2022-10-31T14:08:34;100383.31;;;19.72;67.63
53960;BME280;39866;48.638;-2.020;2022-10-31T14:11:00;100387.09;;;19.70;67.84
53960;BME280;39866;48.638;-2.020;2022-10-31T14:13:37;100362.34;;;19.76;67.56
53960;BME280;39866;48.638;-2.020;2022-10-31T14:18:51;100358.03;;;19.61;67.98
53960;BME280;39866;48.638;-2.020;2022-10-31T14:23:47;100360.38;;;19.78;67.70
53960;BME280;39866;48.638;-2.020;2022-10-31T14:28:56;100357.03;;;19.74;67.79
53960;BME280;39866;48.638;-2.020;2022-10-31T14:31:39;100351.44;;;19.77;67.76
53960;BME280;39866;48.638;-2.020;2022-10-31T14:34:52;100344.75;;;19.70;67.86